sensor_id;sensor_type;location;lat;lon;timestamp;P1;durP1;ratioP1;P2;durP2;ratioP2
23617;SDS011;18207;32.078;34.818;2022-11-21T00:02:16;1.65;;;1.55;;
23617;SDS011;18207;32.078;34.818;2022-11-21T00:04:46;1.60;;;1.50;;
23617;SDS011;18207;32.078;34.818;2022-11-21T00:07:17;2.75;;;1.40;;
23617;SDS011;18207;32.078;34.818;2022-11-21T00:09:48;1.70;;;1.60;;
23617;SDS011;18207;32.078;34.818;2022-11-21T00:12:18;1.73;;;1.60;;
23617;SDS011;18207;32.078;34.818;2022-11-21T00:14:48;2.05;;;1.70;;
23617;SDS011;18207;32.078;34.818;2022-11-21T00:17:20;2.20;;;1.55;;
23617;SDS011;18207;32.078;34.818;2022-11-21T00:19:51;2.00;;;1.60;;
23617;SDS011;18207;32.078;34.818;2022-11-21T00:22:21;2.55;;;1.60;;
23617;SDS011;18207;32.078;34.818;2022-11-21T00:24:51;1.60;;;1.50;;
23617;SDS011;18207;32.078;34.818;2022-11-21T00:27:22;1.73;;;1.63;;
23617;SDS011;18207;32.078;34.818;2022-11-21T00:29:52;2.33;;;1.73;;
23617;SDS011;18207;32.078;34.818;2022-11-21T00:32:25;1.50;;;1.40;;
23617;SDS011;18207;32.078;34.818;2022-11-21T00:34:56;1.80;;;1.70;;
23617;SDS011;18207;32.078;34.818;2022-11-21T00:37:26;1.50;;;1.40;;
23617;SDS011;18207;32.078;34.818;2022-11-21T00:39:57;1.77;;;1.67;;
23617;SDS011;18207;32.078;34.818;2022-11-21T00:42:26;1.60;;;1.50;;
23617;SDS011;18207;32.078;34.818;2022-11-21T00:44:57;1.50;;;1.40;;
23617;SDS011;18207;32.078;34.818;2022-11-21T00:47:29;1.55;;;1.45;;
23617;SDS011;18207;32.078;34.818;2022-11-21T00:49:59;1.60;;;1.25;;
23617;SDS011;18207;32.078;34.818;2022-11-21T00:52:30;1.17;;;1.17;;
23617;SDS011;18207;32.078;34.818;2022-11-21T00:55:01;1.25;;;1.15;;
23617;SDS011;18207;32.078;34.818;2022-11-21T00:57:31;1.50;;;1.40;;
23617;SDS011;18207;32.078;34.818;2022-11-21T01:00:02;1.52;;;1.42;;
23617;SDS011;18207;32.078;34.818;2022-11-21T01:02:36;1.40;;;1.10;;
23617;SDS011;18207;32.078;34.818;2022-11-21T01:05:07;1.40;;;1.30;;
23617;SDS011;18207;32.078;34.818;2022-11-21T01:07:38;1.45;;;1.35;;
23617;SDS011;18207;32.078;34.818;2022-11-21T01:10:08;1.55;;;1.45;;
23617;SDS011;18207;32.078;34.818;2022-11-21T01:12:38;1.48;;;1.38;;
23617;SDS011;18207;32.078;34.818;2022-11-21T01:15:09;1.77;;;1.67;;
23617;SDS011;18207;32.078;34.818;2022-11-21T01:17:42;1.63;;;1.33;;
23617;SDS011;18207;32.078;34.818;2022-11-21T01:20:12;1.50;;;1.40;;
23617;SDS011;18207;32.078;34.818;2022-11-21T01:22:42;1.48;;;1.40;;
23617;SDS011;18207;32.078;34.818;2022-11-21T01:25:12;1.50;;;1.25;;
23617;SDS011;18207;32.078;34.818;2022-11-21T01:27:43;1.52;;;1.42;;
23617;SDS011;18207;32.078;34.818;2022-11-21T01:30:13;2.20;;;1.67;;
23617;SDS011;18207;32.078;34.818;2022-11-21T01:32:48;1.50;;;1.40;;
23617;SDS011;18207;32.078;34.818;2022-11-21T01:35:19;1.60;;;1.50;;
23617;SDS011;18207;32.078;34.818;2022-11-21T01:37:48;1.50;;;1.40;;
23617;SDS011;18207;32.078;34.818;2022-11-21T01:40:19;1.70;;;1.60;;
23617;SDS011;18207;32.078;34.818;2022-11-21T01:42:57;1.65;;;1.55;;
23617;SDS011;18207;32.078;34.818;2022-11-21T01:45:50;2.33;;;1.70;;
23617;SDS011;18207;32.078;34.818;2022-11-21T01:48:29;2.03;;;1.70;;
23617;SDS011;18207;32.078;34.818;2022-11-21T01:51:10;2.08;;;1.98;;
23617;SDS011;18207;32.078;34.818;2022-11-21T01:53:49;2.15;;;2.00;;
23617;SDS011;18207;32.078;34.818;2022-11-21T01:56:27;1.92;;;1.75;;
23617;SDS011;18207;32.078;34.818;2022-11-21T01:59:04;2.20;;;1.95;;
23617;SDS011;18207;32.078;34.818;2022-11-21T02:01:39;2.60;;;2.03;;
23617;SDS011;18207;32.078;34.818;2022-11-21T02:04:14;3.08;;;2.35;;
23617;SDS011;18207;32.078;34.818;2022-11-21T02:06:45;2.35;;;2.15;;
23617;SDS011;18207;32.078;34.818;2022-11-21T02:09:16;3.10;;;2.50;;
23617;SDS011;18207;32.078;34.818;2022-11-21T02:11:48;2.22;;;2.03;;
23617;SDS011;18207;32.078;34.818;2022-11-21T02:14:22;2.38;;;2.17;;
23617;SDS011;18207;32.078;34.818;2022-11-21T02:16:55;1.90;;;1.80;;
23617;SDS011;18207;32.078;34.818;2022-11-21T02:19:34;2.50;;;2.30;;
23617;SDS011;18207;32.078;34.818;2022-11-21T02:22:15;2.47;;;2.28;;
23617;SDS011;18207;32.078;34.818;2022-11-21T02:25:07;4.00;;;2.45;;
23617;SDS011;18207;32.078;34.818;2022-11-21T02:27:41;2.40;;;2.20;;
23617;SDS011;18207;32.078;34.818;2022-11-21T02:30:13;1.92;;;1.83;;
23617;SDS011;18207;32.078;34.818;2022-11-21T02:32:45;2.25;;;2.05;;
23617;SDS011;18207;32.078;34.818;2022-11-21T02:35:17;2.10;;;1.75;;
23617;SDS011;18207;32.078;34.818;2022-11-21T02:38:02;1.98;;;1.88;;
23617;SDS011;18207;32.078;34.818;2022-11-21T02:40:43;2.00;;;1.80;;
23617;SDS011;18207;32.078;34.818;2022-11-21T02:43:38;2.05;;;1.92;;
23617;SDS011;18207;32.078;34.818;2022-11-21T02:46:23;1.70;;;1.60;;
23617;SDS011;18207;32.078;34.818;2022-11-21T02:48:55;2.00;;;1.80;;
23617;SDS011;18207;32.078;34.818;2022-11-21T02:51:27;1.92;;;1.75;;
23617;SDS011;18207;32.078;34.818;2022-11-21T02:53:57;2.03;;;1.85;;
23617;SDS011;18207;32.078;34.818;2022-11-21T02:56:30;1.95;;;1.75;;
23617;SDS011;18207;32.078;34.818;2022-11-21T02:59:00;2.08;;;1.83;;
23617;SDS011;18207;32.078;34.818;2022-11-21T03:01:31;1.92;;;1.73;;
23617;SDS011;18207;32.078;34.818;2022-11-21T03:04:01;2.22;;;2.03;;
23617;SDS011;18207;32.078;34.818;2022-11-21T03:06:32;1.80;;;1.70;;
23617;SDS011;18207;32.078;34.818;2022-11-21T03:09:02;1.80;;;1.70;;
23617;SDS011;18207;32.078;34.818;2022-11-21T03:11:34;1.98;;;1.77;;
23617;SDS011;18207;32.078;34.818;2022-11-21T03:14:04;2.00;;;1.90;;
23617;SDS011;18207;32.078;34.818;2022-11-21T03:16:35;1.90;;;1.80;;
23617;SDS011;18207;32.078;34.818;2022-11-21T03:19:05;2.17;;;1.70;;
23617;SDS011;18207;32.078;34.818;2022-11-21T03:21:36;2.10;;;1.90;;
23617;SDS011;18207;32.078;34.818;2022-11-21T03:24:06;2.15;;;1.98;;
23617;SDS011;18207;32.078;34.818;2022-11-21T03:26:39;1.85;;;1.75;;
23617;SDS011;18207;32.078;34.818;2022-11-21T03:29:09;2.13;;;2.00;;
23617;SDS011;18207;32.078;34.818;2022-11-21T03:31:39;2.20;;;2.00;;
23617;SDS011;18207;32.078;34.818;2022-11-21T03:34:10;1.98;;;1.88;;
23617;SDS011;18207;32.078;34.818;2022-11-21T03:36:40;2.20;;;2.00;;
23617;SDS011;18207;32.078;34.818;2022-11-21T03:39:11;2.35;;;2.03;;
23617;SDS011;18207;32.078;34.818;2022-11-21T03:41:43;2.13;;;1.92;;
23617;SDS011;18207;32.078;34.818;2022-11-21T03:44:13;1.80;;;1.70;;
23617;SDS011;18207;32.078;34.818;2022-11-21T03:46:44;1.80;;;1.70;;
23617;SDS011;18207;32.078;34.818;2022-11-21T03:49:15;1.42;;;1.33;;
23617;SDS011;18207;32.078;34.818;2022-11-21T03:51:45;1.73;;;1.48;;
23617;SDS011;18207;32.078;34.818;2022-11-21T03:54:15;1.80;;;1.70;;
23617;SDS011;18207;32.078;34.818;2022-11-21T03:56:47;3.28;;;1.70;;
23617;SDS011;18207;32.078;34.818;2022-11-21T03:59:17;2.00;;;1.80;;
23617;SDS011;18207;32.078;34.818;2022-11-21T04:01:48;2.13;;;1.92;;
23617;SDS011;18207;32.078;34.818;2022-11-21T04:04:19;2.63;;;1.77;;
23617;SDS011;18207;32.078;34.818;2022-11-21T04:06:50;1.77;;;1.67;;
23617;SDS011;18207;32.078;34.818;2022-11-21T04:09:21;2.00;;;1.80;;
23617;SDS011;18207;32.078;34.818;2022-11-21T04:11:53;1.88;;;1.77;;
23617;SDS011;18207;32.078;34.818;2022-11-21T04:14:23;2.33;;;2.10;;
23617;SDS011;18207;32.078;34.818;2022-11-21T04:16:54;2.28;;;2.08;;
23617;SDS011;18207;32.078;34.818;2022-11-21T04:19:24;1.75;;;1.65;;
23617;SDS011;18207;32.078;34.818;2022-11-21T04:21:55;1.90;;;1.63;;
23617;SDS011;18207;32.078;34.818;2022-11-21T04:24:26;1.85;;;1.75;;
23617;SDS011;18207;32.078;34.818;2022-11-21T04:26:58;1.77;;;1.63;;
23617;SDS011;18207;32.078;34.818;2022-11-21T04:29:29;2.20;;;2.00;;
23617;SDS011;18207;32.078;34.818;2022-11-21T04:31:59;2.10;;;1.90;;
23617;SDS011;18207;32.078;34.818;2022-11-21T04:34:30;1.83;;;1.73;;
23617;SDS011;18207;32.078;34.818;2022-11-21T04:37:00;1.77;;;1.60;;
23617;SDS011;18207;32.078;34.818;2022-11-21T04:39:36;1.83;;;1.70;;
23617;SDS011;18207;32.078;34.818;2022-11-21T04:42:08;2.25;;;1.90;;
23617;SDS011;18207;32.078;34.818;2022-11-21T04:44:39;1.90;;;1.80;;
23617;SDS011;18207;32.078;34.818;2022-11-21T04:47:09;2.10;;;1.90;;
23617;SDS011;18207;32.078;34.818;2022-11-21T04:49:40;1.80;;;1.70;;
23617;SDS011;18207;32.078;34.818;2022-11-21T04:52:10;1.65;;;1.55;;
23617;SDS011;18207;32.078;34.818;2022-11-21T04:54:41;1.75;;;1.65;;
23617;SDS011;18207;32.078;34.818;2022-11-21T04:57:13;1.75;;;1.65;;
23617;SDS011;18207;32.078;34.818;2022-11-21T04:59:43;1.80;;;1.70;;
23617;SDS011;18207;32.078;34.818;2022-11-21T05:02:13;1.58;;;1.48;;
23617;SDS011;18207;32.078;34.818;2022-11-21T05:04:44;1.85;;;1.65;;
23617;SDS011;18207;32.078;34.818;2022-11-21T05:07:14;1.50;;;1.40;;
23617;SDS011;18207;32.078;34.818;2022-11-21T05:09:46;1.80;;;1.70;;
23617;SDS011;18207;32.078;34.818;2022-11-21T05:12:18;1.40;;;1.40;;
23617;SDS011;18207;32.078;34.818;2022-11-21T05:15:05;1.88;;;1.63;;
23617;SDS011;18207;32.078;34.818;2022-11-21T05:17:37;2.47;;;1.80;;
23617;SDS011;18207;32.078;34.818;2022-11-21T05:20:07;1.98;;;1.73;;
23617;SDS011;18207;32.078;34.818;2022-11-21T05:22:39;2.00;;;1.67;;
23617;SDS011;18207;32.078;34.818;2022-11-21T05:25:12;1.90;;;1.80;;
23617;SDS011;18207;32.078;34.818;2022-11-21T05:27:44;2.00;;;1.77;;
23617;SDS011;18207;32.078;34.818;2022-11-21T05:30:15;1.70;;;1.60;;
23617;SDS011;18207;32.078;34.818;2022-11-21T05:32:45;1.60;;;1.50;;
23617;SDS011;18207;32.078;34.818;2022-11-21T05:35:16;1.52;;;1.42;;
23617;SDS011;18207;32.078;34.818;2022-11-21T05:37:46;1.75;;;1.65;;
23617;SDS011;18207;32.078;34.818;2022-11-21T05:40:16;2.28;;;1.90;;
23617;SDS011;18207;32.078;34.818;2022-11-21T05:42:49;1.70;;;1.60;;
23617;SDS011;18207;32.078;34.818;2022-11-21T05:45:36;2.00;;;1.80;;
23617;SDS011;18207;32.078;34.818;2022-11-21T05:48:06;1.90;;;1.80;;
23617;SDS011;18207;32.078;34.818;2022-11-21T05:50:37;1.80;;;1.70;;
23617;SDS011;18207;32.078;34.818;2022-11-21T05:53:07;1.80;;;1.70;;
23617;SDS011;18207;32.078;34.818;2022-11-21T05:55:37;1.95;;;1.77;;
23617;SDS011;18207;32.078;34.818;2022-11-21T05:58:10;1.85;;;1.75;;
23617;SDS011;18207;32.078;34.818;2022-11-21T06:00:41;2.03;;;1.83;;
23617;SDS011;18207;32.078;34.818;2022-11-21T06:03:11;1.88;;;1.77;;
23617;SDS011;18207;32.078;34.818;2022-11-21T06:06:00;2.13;;;1.63;;
23617;SDS011;18207;32.078;34.818;2022-11-21T06:08:34;1.77;;;1.67;;
23617;SDS011;18207;32.078;34.818;2022-11-21T06:11:06;1.77;;;1.60;;
23617;SDS011;18207;32.078;34.818;2022-11-21T06:13:40;1.90;;;1.80;;
23617;SDS011;18207;32.078;34.818;2022-11-21T06:16:12;1.70;;;1.60;;
23617;SDS011;18207;32.078;34.818;2022-11-21T06:18:45;1.60;;;1.50;;
23617;SDS011;18207;32.078;34.818;2022-11-21T06:21:24;1.77;;;1.67;;
23617;SDS011;18207;32.078;34.818;2022-11-21T06:23:59;2.90;;;1.88;;
23617;SDS011;18207;32.078;34.818;2022-11-21T06:26:31;2.15;;;1.95;;
23617;SDS011;18207;32.078;34.818;2022-11-21T06:29:03;1.77;;;1.67;;
23617;SDS011;18207;32.078;34.818;2022-11-21T06:31:42;1.70;;;1.50;;
23617;SDS011;18207;32.078;34.818;2022-11-21T06:34:13;1.65;;;1.55;;
23617;SDS011;18207;32.078;34.818;2022-11-21T06:36:44;1.85;;;1.75;;
23617;SDS011;18207;32.078;34.818;2022-11-21T06:39:16;2.20;;;1.83;;
23617;SDS011;18207;32.078;34.818;2022-11-21T06:41:47;1.80;;;1.70;;
23617;SDS011;18207;32.078;34.818;2022-11-21T06:44:19;1.83;;;1.73;;
23617;SDS011;18207;32.078;34.818;2022-11-21T06:46:50;1.80;;;1.70;;
23617;SDS011;18207;32.078;34.818;2022-11-21T06:49:20;1.70;;;1.60;;
23617;SDS011;18207;32.078;34.818;2022-11-21T06:51:50;2.70;;;1.55;;
23617;SDS011;18207;32.078;34.818;2022-11-21T06:54:21;1.50;;;1.40;;
23617;SDS011;18207;32.078;34.818;2022-11-21T06:56:51;1.83;;;1.73;;
23617;SDS011;18207;32.078;34.818;2022-11-21T06:59:26;1.80;;;1.70;;
23617;SDS011;18207;32.078;34.818;2022-11-21T07:01:57;1.55;;;1.45;;
23617;SDS011;18207;32.078;34.818;2022-11-21T07:04:27;1.83;;;1.73;;
23617;SDS011;18207;32.078;34.818;2022-11-21T07:06:58;1.70;;;1.60;;
23617;SDS011;18207;32.078;34.818;2022-11-21T07:09:28;2.05;;;1.70;;
23617;SDS011;18207;32.078;34.818;2022-11-21T07:12:00;1.65;;;1.55;;
23617;SDS011;18207;32.078;34.818;2022-11-21T07:14:45;1.80;;;1.70;;
23617;SDS011;18207;32.078;34.818;2022-11-21T07:17:16;1.70;;;1.60;;
23617;SDS011;18207;32.078;34.818;2022-11-21T07:19:46;1.75;;;1.65;;
23617;SDS011;18207;32.078;34.818;2022-11-21T07:22:17;3.08;;;1.73;;
23617;SDS011;18207;32.078;34.818;2022-11-21T07:24:47;2.10;;;1.92;;
23617;SDS011;18207;32.078;34.818;2022-11-21T07:27:18;2.00;;;1.90;;
23617;SDS011;18207;32.078;34.818;2022-11-21T07:29:50;2.38;;;2.17;;
23617;SDS011;18207;32.078;34.818;2022-11-21T07:32:23;2.00;;;1.90;;
23617;SDS011;18207;32.078;34.818;2022-11-21T07:34:58;2.42;;;2.10;;
23617;SDS011;18207;32.078;34.818;2022-11-21T07:37:31;2.15;;;1.95;;
23617;SDS011;18207;32.078;34.818;2022-11-21T07:40:06;2.47;;;1.67;;
23617;SDS011;18207;32.078;34.818;2022-11-21T07:42:37;2.63;;;2.03;;
23617;SDS011;18207;32.078;34.818;2022-11-21T07:45:11;2.55;;;1.90;;
23617;SDS011;18207;32.078;34.818;2022-11-21T07:47:43;2.17;;;2.00;;
23617;SDS011;18207;32.078;34.818;2022-11-21T07:50:14;2.17;;;2.08;;
23617;SDS011;18207;32.078;34.818;2022-11-21T07:52:44;2.28;;;2.08;;
23617;SDS011;18207;32.078;34.818;2022-11-21T07:55:13;2.30;;;2.10;;
23617;SDS011;18207;32.078;34.818;2022-11-21T07:57:44;2.13;;;1.80;;
23617;SDS011;18207;32.078;34.818;2022-11-21T08:00:18;2.08;;;1.88;;
23617;SDS011;18207;32.078;34.818;2022-11-21T08:02:49;2.13;;;1.92;;
23617;SDS011;18207;32.078;34.818;2022-11-21T08:05:19;2.25;;;1.90;;
23617;SDS011;18207;32.078;34.818;2022-11-21T08:07:50;2.72;;;1.90;;
23617;SDS011;18207;32.078;34.818;2022-11-21T08:10:20;1.92;;;1.75;;
23617;SDS011;18207;32.078;34.818;2022-11-21T08:12:51;1.90;;;1.80;;
23617;SDS011;18207;32.078;34.818;2022-11-21T08:15:23;1.85;;;1.75;;
23617;SDS011;18207;32.078;34.818;2022-11-21T08:17:53;1.88;;;1.77;;
23617;SDS011;18207;32.078;34.818;2022-11-21T08:20:24;2.00;;;1.75;;
23617;SDS011;18207;32.078;34.818;2022-11-21T08:22:54;2.10;;;1.70;;
23617;SDS011;18207;32.078;34.818;2022-11-21T08:25:24;2.00;;;1.90;;
23617;SDS011;18207;32.078;34.818;2022-11-21T08:27:55;2.03;;;1.80;;
23617;SDS011;18207;32.078;34.818;2022-11-21T08:30:28;1.80;;;1.70;;
23617;SDS011;18207;32.078;34.818;2022-11-21T08:32:58;2.08;;;1.90;;
23617;SDS011;18207;32.078;34.818;2022-11-21T08:35:29;2.40;;;2.20;;
23617;SDS011;18207;32.078;34.818;2022-11-21T08:38:00;1.95;;;1.85;;
23617;SDS011;18207;32.078;34.818;2022-11-21T08:40:31;2.15;;;2.00;;
23617;SDS011;18207;32.078;34.818;2022-11-21T08:43:03;2.08;;;1.98;;
23617;SDS011;18207;32.078;34.818;2022-11-21T08:45:38;2.30;;;2.10;;
23617;SDS011;18207;32.078;34.818;2022-11-21T08:48:08;2.00;;;1.90;;
23617;SDS011;18207;32.078;34.818;2022-11-21T08:50:39;2.47;;;2.17;;
23617;SDS011;18207;32.078;34.818;2022-11-21T08:53:10;2.10;;;2.00;;
23617;SDS011;18207;32.078;34.818;2022-11-21T08:55:41;1.98;;;1.88;;
23617;SDS011;18207;32.078;34.818;2022-11-21T08:58:11;2.20;;;2.00;;
23617;SDS011;18207;32.078;34.818;2022-11-21T09:00:43;2.00;;;1.90;;
23617;SDS011;18207;32.078;34.818;2022-11-21T09:03:15;2.35;;;2.00;;
23617;SDS011;18207;32.078;34.818;2022-11-21T09:05:55;1.98;;;1.88;;
23617;SDS011;18207;32.078;34.818;2022-11-21T09:08:27;2.75;;;2.15;;
23617;SDS011;18207;32.078;34.818;2022-11-21T09:11:01;2.40;;;2.20;;
23617;SDS011;18207;32.078;34.818;2022-11-21T09:13:34;2.10;;;2.00;;
23617;SDS011;18207;32.078;34.818;2022-11-21T09:16:09;1.92;;;1.83;;
23617;SDS011;18207;32.078;34.818;2022-11-21T09:18:56;1.80;;;1.70;;
23617;SDS011;18207;32.078;34.818;2022-11-21T09:21:27;2.70;;;1.70;;
23617;SDS011;18207;32.078;34.818;2022-11-21T09:23:58;2.83;;;1.80;;
23617;SDS011;18207;32.078;34.818;2022-11-21T09:26:32;1.75;;;1.65;;
23617;SDS011;18207;32.078;34.818;2022-11-21T09:29:17;2.47;;;1.58;;
23617;SDS011;18207;32.078;34.818;2022-11-21T09:31:49;1.40;;;1.38;;
23617;SDS011;18207;32.078;34.818;2022-11-21T09:34:20;1.80;;;1.70;;
23617;SDS011;18207;32.078;34.818;2022-11-21T09:36:50;1.85;;;1.75;;
23617;SDS011;18207;32.078;34.818;2022-11-21T09:39:22;1.73;;;1.63;;
23617;SDS011;18207;32.078;34.818;2022-11-21T09:42:00;1.80;;;1.70;;
23617;SDS011;18207;32.078;34.818;2022-11-21T09:44:58;1.73;;;1.63;;
23617;SDS011;18207;32.078;34.818;2022-11-21T09:47:44;1.83;;;1.73;;
23617;SDS011;18207;32.078;34.818;2022-11-21T09:50:23;2.00;;;1.80;;
23617;SDS011;18207;32.078;34.818;2022-11-21T09:53:00;1.90;;;1.80;;
23617;SDS011;18207;32.078;34.818;2022-11-21T09:55:41;2.20;;;2.00;;
23617;SDS011;18207;32.078;34.818;2022-11-21T09:58:19;1.80;;;1.70;;
23617;SDS011;18207;32.078;34.818;2022-11-21T10:00:59;1.77;;;1.67;;
23617;SDS011;18207;32.078;34.818;2022-11-21T10:03:32;1.60;;;1.50;;
23617;SDS011;18207;32.078;34.818;2022-11-21T10:06:12;1.67;;;1.58;;
23617;SDS011;18207;32.078;34.818;2022-11-21T10:08:52;1.75;;;1.65;;
23617;SDS011;18207;32.078;34.818;2022-11-21T10:11:38;1.40;;;1.35;;
23617;SDS011;18207;32.078;34.818;2022-11-21T10:14:43;1.80;;;1.70;;
23617;SDS011;18207;32.078;34.818;2022-11-21T10:17:27;1.95;;;1.70;;
23617;SDS011;18207;32.078;34.818;2022-11-21T10:20:32;1.90;;;1.65;;
23617;SDS011;18207;32.078;34.818;2022-11-21T10:23:44;2.40;;;1.80;;
23617;SDS011;18207;32.078;34.818;2022-11-21T10:26:40;1.58;;;1.48;;
23617;SDS011;18207;32.078;34.818;2022-11-21T10:29:20;2.65;;;1.70;;
23617;SDS011;18207;32.078;34.818;2022-11-21T10:32:00;2.00;;;1.90;;
23617;SDS011;18207;32.078;34.818;2022-11-21T10:34:48;1.73;;;1.55;;
23617;SDS011;18207;32.078;34.818;2022-11-21T10:37:29;1.90;;;1.70;;
23617;SDS011;18207;32.078;34.818;2022-11-21T10:40:12;1.92;;;1.80;;
23617;SDS011;18207;32.078;34.818;2022-11-21T10:42:55;1.50;;;1.40;;
23617;SDS011;18207;32.078;34.818;2022-11-21T10:45:51;1.77;;;1.67;;
23617;SDS011;18207;32.078;34.818;2022-11-21T10:48:20;2.00;;;1.80;;
23617;SDS011;18207;32.078;34.818;2022-11-21T10:54:07;1.80;;;1.70;;
23617;SDS011;18207;32.078;34.818;2022-11-21T10:56:57;2.25;;;1.60;;
23617;SDS011;18207;32.078;34.818;2022-11-21T10:59:34;1.75;;;1.65;;
23617;SDS011;18207;32.078;34.818;2022-11-21T11:07:58;1.70;;;1.60;;
23617;SDS011;18207;32.078;34.818;2022-11-21T11:10:33;1.77;;;1.67;;
23617;SDS011;18207;32.078;34.818;2022-11-21T11:13:12;1.80;;;1.70;;
23617;SDS011;18207;32.078;34.818;2022-11-21T11:16:14;1.77;;;1.67;;
23617;SDS011;18207;32.078;34.818;2022-11-21T11:18:50;2.05;;;1.75;;
23617;SDS011;18207;32.078;34.818;2022-11-21T11:21:27;2.50;;;1.80;;
23617;SDS011;18207;32.078;34.818;2022-11-21T11:24:05;1.98;;;1.80;;
23617;SDS011;18207;32.078;34.818;2022-11-21T11:26:59;2.20;;;1.58;;
23617;SDS011;18207;32.078;34.818;2022-11-21T11:29:31;2.03;;;1.88;;
23617;SDS011;18207;32.078;34.818;2022-11-21T11:32:16;2.03;;;1.90;;
23617;SDS011;18207;32.078;34.818;2022-11-21T11:34:50;1.88;;;1.77;;
23617;SDS011;18207;32.078;34.818;2022-11-21T11:37:31;1.83;;;1.58;;
23617;SDS011;18207;32.078;34.818;2022-11-21T11:40:14;2.47;;;1.80;;
23617;SDS011;18207;32.078;34.818;2022-11-21T11:42:55;2.03;;;1.83;;
23617;SDS011;18207;32.078;34.818;2022-11-21T11:46:04;1.90;;;1.80;;
23617;SDS011;18207;32.078;34.818;2022-11-21T11:49:14;1.83;;;1.73;;
23617;SDS011;18207;32.078;34.818;2022-11-21T11:51:52;2.22;;;2.00;;
23617;SDS011;18207;32.078;34.818;2022-11-21T11:54:28;1.83;;;1.73;;
23617;SDS011;18207;32.078;34.818;2022-11-21T11:57:12;1.80;;;1.70;;
23617;SDS011;18207;32.078;34.818;2022-11-21T11:59:47;1.83;;;1.73;;
23617;SDS011;18207;32.078;34.818;2022-11-21T12:02:35;2.05;;;1.70;;
23617;SDS011;18207;32.078;34.818;2022-11-21T12:05:22;1.85;;;1.75;;
23617;SDS011;18207;32.078;34.818;2022-11-21T12:08:00;1.90;;;1.80;;
23617;SDS011;18207;32.078;34.818;2022-11-21T12:11:02;2.25;;;1.70;;
23617;SDS011;18207;32.078;34.818;2022-11-21T12:14:08;1.70;;;1.60;;
23617;SDS011;18207;32.078;34.818;2022-11-21T12:17:06;2.10;;;1.90;;
23617;SDS011;18207;32.078;34.818;2022-11-21T12:19:40;1.95;;;1.85;;
23617;SDS011;18207;32.078;34.818;2022-11-21T12:22:12;2.03;;;1.92;;
23617;SDS011;18207;32.078;34.818;2022-11-21T12:24:43;2.10;;;1.90;;
23617;SDS011;18207;32.078;34.818;2022-11-21T12:27:17;2.05;;;1.95;;
23617;SDS011;18207;32.078;34.818;2022-11-21T12:30:17;1.75;;;1.65;;
23617;SDS011;18207;32.078;34.818;2022-11-21T12:33:20;1.75;;;1.65;;
23617;SDS011;18207;32.078;34.818;2022-11-21T12:35:59;1.73;;;1.63;;
23617;SDS011;18207;32.078;34.818;2022-11-21T12:42:23;1.77;;;1.55;;
23617;SDS011;18207;32.078;34.818;2022-11-21T12:45:29;2.08;;;1.83;;
23617;SDS011;18207;32.078;34.818;2022-11-21T12:51:36;2.10;;;1.90;;
23617;SDS011;18207;32.078;34.818;2022-11-21T12:54:47;2.08;;;1.73;;
23617;SDS011;18207;32.078;34.818;2022-11-21T12:57:34;1.95;;;1.85;;
23617;SDS011;18207;32.078;34.818;2022-11-21T13:00:18;1.70;;;1.60;;
23617;SDS011;18207;32.078;34.818;2022-11-21T13:03:02;2.05;;;1.95;;
23617;SDS011;18207;32.078;34.818;2022-11-21T13:06:01;1.75;;;1.65;;
23617;SDS011;18207;32.078;34.818;2022-11-21T13:08:35;2.33;;;2.00;;
23617;SDS011;18207;32.078;34.818;2022-11-21T13:11:11;1.98;;;1.88;;
23617;SDS011;18207;32.078;34.818;2022-11-21T13:14:20;1.80;;;1.70;;
23617;SDS011;18207;32.078;34.818;2022-11-21T13:20:04;2.22;;;2.03;;
23617;SDS011;18207;32.078;34.818;2022-11-21T13:22:51;2.10;;;1.90;;
23617;SDS011;18207;32.078;34.818;2022-11-21T13:25:42;2.03;;;1.83;;
23617;SDS011;18207;32.078;34.818;2022-11-21T13:31:28;1.63;;;1.52;;
23617;SDS011;18207;32.078;34.818;2022-11-21T13:34:01;1.98;;;1.88;;
23617;SDS011;18207;32.078;34.818;2022-11-21T13:36:34;2.25;;;2.05;;
23617;SDS011;18207;32.078;34.818;2022-11-21T13:42:11;2.10;;;2.00;;
23617;SDS011;18207;32.078;34.818;2022-11-21T13:48:14;1.98;;;1.88;;
23617;SDS011;18207;32.078;34.818;2022-11-21T13:51:18;1.90;;;1.80;;
23617;SDS011;18207;32.078;34.818;2022-11-21T13:57:45;1.90;;;1.80;;
23617;SDS011;18207;32.078;34.818;2022-11-21T14:06:53;1.85;;;1.75;;
23617;SDS011;18207;32.078;34.818;2022-11-21T14:09:25;2.03;;;1.92;;
23617;SDS011;18207;32.078;34.818;2022-11-21T14:12:04;2.83;;;2.03;;
23617;SDS011;18207;32.078;34.818;2022-11-21T14:15:13;1.98;;;1.85;;
23617;SDS011;18207;32.078;34.818;2022-11-21T14:17:53;1.85;;;1.73;;
23617;SDS011;18207;32.078;34.818;2022-11-21T14:20:27;2.22;;;2.03;;
23617;SDS011;18207;32.078;34.818;2022-11-21T14:23:17;1.95;;;1.80;;
23617;SDS011;18207;32.078;34.818;2022-11-21T14:25:52;3.08;;;2.00;;
23617;SDS011;18207;32.078;34.818;2022-11-21T14:28:29;2.10;;;2.00;;
23617;SDS011;18207;32.078;34.818;2022-11-21T14:31:02;2.20;;;2.00;;
23617;SDS011;18207;32.078;34.818;2022-11-21T14:33:35;2.50;;;2.00;;
23617;SDS011;18207;32.078;34.818;2022-11-21T14:36:07;2.40;;;2.20;;
23617;SDS011;18207;32.078;34.818;2022-11-21T14:38:43;2.88;;;1.90;;
23617;SDS011;18207;32.078;34.818;2022-11-21T14:41:37;1.98;;;1.85;;
23617;SDS011;18207;32.078;34.818;2022-11-21T14:44:17;2.00;;;1.85;;
23617;SDS011;18207;32.078;34.818;2022-11-21T14:46:49;2.25;;;1.75;;
23617;SDS011;18207;32.078;34.818;2022-11-21T14:49:34;2.35;;;1.77;;
23617;SDS011;18207;32.078;34.818;2022-11-21T14:52:14;1.90;;;1.80;;
23617;SDS011;18207;32.078;34.818;2022-11-21T14:54:49;1.90;;;1.80;;
23617;SDS011;18207;32.078;34.818;2022-11-21T14:57:43;2.35;;;1.88;;
23617;SDS011;18207;32.078;34.818;2022-11-21T15:00:17;2.05;;;1.95;;
23617;SDS011;18207;32.078;34.818;2022-11-21T15:03:15;2.13;;;1.92;;
23617;SDS011;18207;32.078;34.818;2022-11-21T15:05:57;5.30;;;2.20;;
23617;SDS011;18207;32.078;34.818;2022-11-21T15:08:32;2.33;;;2.00;;
23617;SDS011;18207;32.078;34.818;2022-11-21T15:11:27;2.30;;;2.10;;
23617;SDS011;18207;32.078;34.818;2022-11-21T15:14:09;2.50;;;2.30;;
23617;SDS011;18207;32.078;34.818;2022-11-21T15:16:51;2.17;;;1.98;;
23617;SDS011;18207;32.078;34.818;2022-11-21T15:19:24;2.03;;;1.90;;
23617;SDS011;18207;32.078;34.818;2022-11-21T15:21:59;6.00;;;2.67;;
23617;SDS011;18207;32.078;34.818;2022-11-21T15:24:36;3.03;;;2.72;;
23617;SDS011;18207;32.078;34.818;2022-11-21T15:27:23;2.92;;;2.47;;
23617;SDS011;18207;32.078;34.818;2022-11-21T15:30:05;3.15;;;2.30;;
23617;SDS011;18207;32.078;34.818;2022-11-21T15:35:52;2.35;;;2.15;;
23617;SDS011;18207;32.078;34.818;2022-11-21T15:38:25;2.05;;;1.92;;
23617;SDS011;18207;32.078;34.818;2022-11-21T15:41:03;2.10;;;2.00;;
23617;SDS011;18207;32.078;34.818;2022-11-21T15:43:53;2.63;;;2.33;;
23617;SDS011;18207;32.078;34.818;2022-11-21T15:46:42;2.20;;;2.05;;
23617;SDS011;18207;32.078;34.818;2022-11-21T15:49:15;2.22;;;2.03;;
23617;SDS011;18207;32.078;34.818;2022-11-21T15:52:01;2.20;;;2.00;;
23617;SDS011;18207;32.078;34.818;2022-11-21T15:54:40;2.20;;;2.00;;
23617;SDS011;18207;32.078;34.818;2022-11-21T15:57:10;2.00;;;1.90;;
23617;SDS011;18207;32.078;34.818;2022-11-21T15:59:43;2.20;;;2.10;;
23617;SDS011;18207;32.078;34.818;2022-11-21T16:02:15;2.83;;;2.20;;
23617;SDS011;18207;32.078;34.818;2022-11-21T16:04:47;2.40;;;2.20;;
23617;SDS011;18207;32.078;34.818;2022-11-21T16:07:19;2.58;;;2.35;;
23617;SDS011;18207;32.078;34.818;2022-11-21T16:09:49;2.40;;;2.20;;